createdAt,value
2018-12-17T00:01:37.973Z,39.80
2018-12-17T00:04:03.894Z,39.90
2018-12-17T00:06:29.866Z,39.97
2018-12-17T00:08:55.739Z,39.53
2018-12-17T00:11:21.738Z,42.30
2018-12-17T00:13:47.639Z,45.30
2018-12-17T00:16:13.502Z,37.97
2018-12-17T00:18:39.376Z,32.83
2018-12-17T00:21:05.210Z,36.80
2018-12-17T00:23:31.100Z,36.20
2018-12-17T00:25:56.940Z,36.83
2018-12-17T00:28:22.813Z,38.67
2018-12-17T00:30:48.647Z,36.87
2018-12-17T00:33:14.535Z,33.10
2018-12-17T00:35:40.462Z,35.40
2018-12-17T00:38:06.307Z,38.07
2018-12-17T00:40:32.279Z,36.37
2018-12-17T00:42:58.243Z,33.63
2018-12-17T00:45:31.066Z,34.80
2018-12-17T00:47:56.913Z,35.30
2018-12-17T00:50:22.818Z,34.20
2018-12-17T00:52:48.761Z,36.27
2018-12-17T00:55:14.625Z,35.13
2018-12-17T00:57:40.510Z,39.50
2018-12-17T01:00:07.495Z,39.93
2018-12-17T01:02:33.366Z,38.37
2018-12-17T01:04:59.240Z,39.07
2018-12-17T01:07:27.106Z,32.33
2018-12-17T01:09:53.005Z,35.13
2018-12-17T01:12:18.925Z,37.20
2018-12-17T01:14:44.815Z,35.83
2018-12-17T01:17:10.665Z,39.20
2018-12-17T01:19:36.609Z,36.37
2018-12-17T01:22:02.608Z,36.03
2018-12-17T01:24:28.458Z,36.00
2018-12-17T01:26:54.304Z,37.90
2018-12-17T01:29:20.173Z,40.03
2018-12-17T01:31:46.031Z,38.70
2018-12-17T01:34:11.871Z,39.23
2018-12-17T01:36:37.762Z,40.77
2018-12-17T01:39:04.566Z,39.30
2018-12-17T01:41:30.406Z,44.20
2018-12-17T01:43:56.246Z,40.53
2018-12-17T01:46:22.207Z,42.00
2018-12-17T01:48:48.030Z,38.83
2018-12-17T01:51:13.874Z,40.67
2018-12-17T01:53:39.702Z,41.07
2018-12-17T01:56:05.929Z,41.30
2018-12-17T01:58:31.778Z,36.40
2018-12-17T02:00:57.737Z,42.20
2018-12-17T02:03:23.595Z,35.80
2018-12-17T02:05:49.471Z,41.50
2018-12-17T02:08:15.309Z,39.80
2018-12-17T02:10:41.168Z,39.67
2018-12-17T02:13:07.015Z,38.87
2018-12-17T02:15:32.860Z,40.20
2018-12-17T02:17:58.738Z,35.20
2018-12-17T02:20:24.583Z,37.60
2018-12-17T02:22:50.442Z,36.33
2018-12-17T02:25:16.292Z,34.80
2018-12-17T02:27:42.164Z,36.93
2018-12-17T02:30:08.225Z,35.97
2018-12-17T02:32:34.136Z,36.97
2018-12-17T02:34:59.967Z,36.93
2018-12-17T02:37:25.830Z,37.80
2018-12-17T02:39:51.750Z,40.80
2018-12-17T02:42:17.613Z,40.03
2018-12-17T02:44:46.322Z,37.30
2018-12-17T02:47:12.146Z,35.77
2018-12-17T02:49:38.141Z,39.40
2018-12-17T02:52:04.106Z,37.93
2018-12-17T02:54:29.986Z,40.87
2018-12-17T02:56:55.947Z,34.60
2018-12-17T02:59:21.818Z,39.60
2018-12-17T03:01:47.665Z,40.13
2018-12-17T03:04:13.526Z,36.80
2018-12-17T03:06:39.504Z,42.60
2018-12-17T03:09:05.938Z,37.97
2018-12-17T03:11:31.793Z,36.60
2018-12-17T03:13:57.607Z,38.10
2018-12-17T03:16:23.478Z,36.40
2018-12-17T03:18:49.325Z,38.00
2018-12-17T03:21:15.228Z,41.00
2018-12-17T03:23:41.146Z,37.83
2018-12-17T03:26:07.049Z,42.73
2018-12-17T03:28:32.898Z,37.93
2018-12-17T03:30:58.732Z,37.70
2018-12-17T03:33:24.646Z,36.00
2018-12-17T03:35:50.510Z,40.07
2018-12-17T03:38:16.362Z,38.80
2018-12-17T03:40:42.318Z,35.83
2018-12-17T03:43:08.169Z,35.40
2018-12-17T03:45:34.015Z,36.33
2018-12-17T03:47:59.866Z,35.37
2018-12-17T03:50:25.710Z,39.03
2018-12-17T03:52:51.555Z,37.50
2018-12-17T03:55:17.435Z,37.10
2018-12-17T03:57:43.253Z,38.03
2018-12-17T04:00:09.287Z,36.27
2018-12-17T04:02:35.155Z,40.30
2018-12-17T04:05:01.141Z,36.73
2018-12-17T04:07:27.136Z,37.40
2018-12-17T04:09:53.116Z,37.30
2018-12-17T04:12:18.967Z,35.00
2018-12-17T04:14:44.835Z,39.97
2018-12-17T04:17:10.704Z,38.50
2018-12-17T04:19:36.532Z,39.73
2018-12-17T04:22:02.512Z,39.63
2018-12-17T04:24:28.346Z,36.70
2018-12-17T04:26:54.231Z,36.47
2018-12-17T04:29:20.079Z,37.50
2018-12-17T04:31:45.942Z,41.33
2018-12-17T04:34:11.818Z,38.40
2018-12-17T04:36:37.702Z,41.77
2018-12-17T04:39:04.608Z,36.73
2018-12-17T04:41:30.438Z,36.40
2018-12-17T04:43:56.294Z,38.17
2018-12-17T04:46:22.141Z,30.83
2018-12-17T04:48:47.985Z,36.47
2018-12-17T04:51:13.955Z,31.43
2018-12-17T04:53:39.842Z,33.83
2018-12-17T04:56:05.707Z,29.43
2018-12-17T04:58:31.575Z,32.07
2018-12-17T05:00:57.509Z,35.00
2018-12-17T05:03:23.372Z,32.77
2018-12-17T05:05:49.208Z,31.50
2018-12-17T05:08:15.052Z,33.73
2018-12-17T05:10:40.916Z,34.43
2018-12-17T05:13:06.734Z,33.97
2018-12-17T05:15:32.643Z,33.10
2018-12-17T05:17:58.498Z,35.70
2018-12-17T05:20:24.348Z,35.10
2018-12-17T05:22:50.192Z,44.40
2018-12-17T05:25:16.043Z,37.50
2018-12-17T05:27:41.935Z,39.10
2018-12-17T05:30:08.238Z,37.17
2018-12-17T05:32:34.093Z,34.50
2018-12-17T05:35:00.051Z,38.27
2018-12-17T05:37:25.950Z,33.53
2018-12-17T05:39:52.150Z,38.87
2018-12-17T05:42:18.014Z,37.97
2018-12-17T05:44:43.853Z,36.23
2018-12-17T05:47:09.727Z,37.87
2018-12-17T05:49:35.550Z,36.30
2018-12-17T05:52:01.502Z,30.30
2018-12-17T05:54:27.360Z,33.90
2018-12-17T05:56:53.229Z,36.67
2018-12-17T05:59:19.053Z,39.80
2018-12-17T06:01:44.889Z,38.87
2018-12-17T06:04:10.710Z,36.57
2018-12-17T06:06:36.715Z,33.30
2018-12-17T06:09:05.357Z,35.30
2018-12-17T06:11:31.438Z,219.40
2018-12-17T06:13:57.396Z,188.57
2018-12-17T06:16:23.399Z,111.13
2018-12-17T06:18:49.343Z,58.10
2018-12-17T06:21:15.232Z,39.80
2018-12-17T06:23:41.109Z,37.67
2018-12-17T06:26:06.969Z,34.43
2018-12-17T06:28:32.837Z,37.20
2018-12-17T06:30:58.661Z,40.20
2018-12-17T06:33:24.515Z,37.77
2018-12-17T06:35:50.550Z,33.77
2018-12-17T06:38:16.450Z,32.37
2018-12-17T06:40:42.282Z,32.77
2018-12-17T06:43:08.161Z,33.60
2018-12-17T06:45:33.979Z,34.10
2018-12-17T06:47:59.848Z,36.10
2018-12-17T06:50:25.707Z,36.90
2018-12-17T06:52:51.586Z,38.73
2018-12-17T06:55:17.434Z,34.80
2018-12-17T06:57:43.378Z,36.33
2018-12-17T07:00:09.345Z,35.60
2018-12-17T07:02:35.205Z,33.40
2018-12-17T07:05:01.067Z,35.10
2018-12-17T07:07:26.894Z,37.93
2018-12-17T07:09:52.755Z,42.87
2018-12-17T07:12:18.721Z,39.50
2018-12-17T07:14:44.546Z,44.23
2018-12-17T07:17:10.405Z,40.50
2018-12-17T07:19:36.356Z,43.10
2018-12-17T07:22:02.186Z,38.37
2018-12-17T07:24:28.030Z,42.07
2018-12-17T07:26:53.943Z,39.37
2018-12-17T07:29:19.797Z,40.37
2018-12-17T07:31:45.711Z,40.67
2018-12-17T07:34:11.582Z,50.33
2018-12-17T07:36:37.493Z,42.87
2018-12-17T07:39:05.067Z,47.80
2018-12-17T07:41:30.943Z,44.17
2018-12-17T07:43:56.799Z,41.97
2018-12-17T07:46:22.651Z,39.07
2018-12-17T07:51:41.281Z,42.37
2018-12-17T07:54:07.147Z,37.50
2018-12-17T07:56:32.995Z,39.10
2018-12-17T07:58:58.837Z,43.90
2018-12-17T08:01:24.762Z,41.37
2018-12-17T08:03:50.646Z,42.63
2018-12-17T08:06:16.531Z,44.80
2018-12-17T08:08:42.433Z,42.47
2018-12-17T08:11:08.259Z,41.03
2018-12-17T08:13:34.188Z,36.07
2018-12-17T08:16:00.163Z,36.23
2018-12-17T08:18:26.034Z,35.93
2018-12-17T08:20:52.031Z,34.13
2018-12-17T08:23:17.949Z,33.70
2018-12-17T08:25:43.842Z,35.37
2018-12-17T08:28:09.834Z,37.37
2018-12-17T08:30:35.755Z,36.63
2018-12-17T08:33:01.721Z,35.73
2018-12-17T08:35:27.558Z,36.70
2018-12-17T08:37:54.306Z,36.93
2018-12-17T08:40:20.158Z,38.03
2018-12-17T08:42:46.059Z,37.50
2018-12-17T08:45:12.039Z,35.87
2018-12-17T08:47:37.892Z,43.77
2018-12-17T08:50:03.946Z,43.03
2018-12-17T08:52:29.870Z,43.40
2018-12-17T08:54:55.986Z,39.83
2018-12-17T08:57:21.847Z,37.07
2018-12-17T08:59:47.799Z,35.87
2018-12-17T09:02:13.770Z,35.53
2018-12-17T09:04:39.646Z,34.53
2018-12-17T09:07:05.783Z,31.40
2018-12-17T09:09:31.611Z,31.40
2018-12-17T09:11:57.537Z,32.07
2018-12-17T09:14:23.382Z,34.07
2018-12-17T09:16:49.247Z,32.60
2018-12-17T09:19:15.081Z,42.80
2018-12-17T09:21:40.958Z,40.00
2018-12-17T09:24:06.806Z,38.10
2018-12-17T09:26:32.810Z,36.10
2018-12-17T09:28:58.678Z,38.53
2018-12-17T09:31:25.332Z,33.23
2018-12-17T09:33:51.195Z,34.23
2018-12-17T09:36:17.066Z,34.13
2018-12-17T09:38:42.919Z,32.40
2018-12-17T09:41:08.845Z,35.20
2018-12-17T09:43:34.681Z,34.80
2018-12-17T09:46:00.876Z,34.93
2018-12-17T09:48:27.726Z,29.70
2018-12-17T09:50:53.606Z,32.10
2018-12-17T09:53:19.511Z,28.17
2018-12-17T09:55:45.366Z,35.77
2018-12-17T09:58:11.213Z,32.00
2018-12-17T10:00:37.078Z,31.87
2018-12-17T10:03:02.998Z,35.60
2018-12-17T10:05:28.850Z,30.50
2018-12-17T10:07:54.743Z,33.40
2018-12-17T10:10:20.736Z,31.47
2018-12-17T10:12:46.643Z,32.73
2018-12-17T10:15:12.709Z,36.37
2018-12-17T10:17:38.563Z,33.60
2018-12-17T10:20:04.619Z,34.40
2018-12-17T10:22:30.518Z,33.00
2018-12-17T10:24:56.503Z,35.30
2018-12-17T10:27:22.471Z,37.77
2018-12-17T10:29:49.051Z,36.33
2018-12-17T10:32:14.903Z,34.20
2018-12-17T10:34:40.769Z,37.50
2018-12-17T10:37:06.643Z,34.83
2018-12-17T10:39:32.631Z,32.43
2018-12-17T10:41:59.084Z,37.10
2018-12-17T10:44:25.040Z,30.83
2018-12-17T10:46:50.896Z,32.13
2018-12-17T10:49:16.781Z,35.13
2018-12-17T10:51:42.610Z,34.07
2018-12-17T10:54:08.697Z,35.23
2018-12-17T10:56:34.591Z,31.97
2018-12-17T10:59:00.995Z,32.37
2018-12-17T11:01:29.944Z,31.60
2018-12-17T11:03:57.932Z,31.07
2018-12-17T11:06:23.790Z,36.30
2018-12-17T11:08:49.739Z,33.90
2018-12-17T11:11:15.733Z,86.20
2018-12-17T11:13:41.804Z,34.53
2018-12-17T11:16:07.758Z,47.00
2018-12-17T11:18:33.616Z,37.13
2018-12-17T11:20:59.562Z,46.23
2018-12-17T11:23:25.420Z,35.27
2018-12-17T11:25:52.368Z,31.87
2018-12-17T11:28:18.438Z,29.47
2018-12-17T11:30:46.657Z,29.80
2018-12-17T11:33:12.574Z,31.50
2018-12-17T11:35:38.818Z,29.60
2018-12-17T11:38:04.728Z,28.57
2018-12-17T11:40:30.590Z,29.37
2018-12-17T11:42:56.573Z,30.07
2018-12-17T11:45:22.542Z,33.73
2018-12-17T11:47:48.406Z,31.23
2018-12-17T11:50:14.262Z,30.20
2018-12-17T11:52:40.247Z,30.43
2018-12-17T11:55:06.251Z,31.97
2018-12-17T11:57:52.914Z,33.20
2018-12-17T12:00:21.145Z,28.50
2018-12-17T12:02:47.076Z,27.60
2018-12-17T12:05:12.931Z,29.17
2018-12-17T12:07:38.806Z,30.50
2018-12-17T12:10:05.426Z,27.90
2018-12-17T12:12:31.310Z,28.37
2018-12-17T12:14:57.159Z,31.43
2018-12-17T12:17:23.025Z,29.30
2018-12-17T12:19:48.892Z,32.20
2018-12-17T12:22:14.731Z,29.87
2018-12-17T12:24:40.669Z,31.93
2018-12-17T12:27:06.503Z,31.77
2018-12-17T12:29:32.406Z,30.33
2018-12-17T12:31:58.227Z,26.87
2018-12-17T12:34:24.090Z,29.97
2018-12-17T12:36:50.057Z,29.03
2018-12-17T12:39:15.930Z,29.27
2018-12-17T12:41:41.778Z,31.17
2018-12-17T12:44:08.872Z,29.80
2018-12-17T12:46:35.127Z,32.60
2018-12-17T12:49:01.010Z,29.23
2018-12-17T12:51:32.550Z,24.70
2018-12-17T12:53:55.030Z,28.27
2018-12-17T12:56:21.001Z,25.90
2018-12-17T12:58:46.869Z,27.27
2018-12-17T13:01:12.715Z,26.90
2018-12-17T13:03:38.586Z,23.67
2018-12-17T13:06:04.594Z,25.40
2018-12-17T13:08:30.656Z,28.27
2018-12-17T13:10:56.516Z,22.73
2018-12-17T13:13:22.329Z,24.97
2018-12-17T13:15:48.177Z,24.87
2018-12-17T13:18:14.921Z,26.73
2018-12-17T13:20:40.782Z,27.67
2018-12-17T13:23:07.622Z,26.67
2018-12-17T13:25:36.707Z,28.17
2018-12-17T13:28:02.546Z,29.30
2018-12-17T13:30:28.395Z,26.83
2018-12-17T13:32:54.907Z,25.13
2018-12-17T13:35:20.766Z,25.93
2018-12-17T13:37:48.476Z,25.47
2018-12-17T13:40:14.518Z,26.13
2018-12-17T13:42:40.367Z,26.83
2018-12-17T13:45:06.442Z,26.60
2018-12-17T13:47:32.426Z,28.80
2018-12-17T13:50:00.290Z,26.83
2018-12-17T13:52:32.354Z,26.90
2018-12-17T13:54:58.199Z,28.67
2018-12-17T13:57:24.084Z,23.87
2018-12-17T13:59:49.928Z,24.70
2018-12-17T14:02:15.775Z,23.80
2018-12-17T14:07:49.859Z,26.37
2018-12-17T14:10:21.828Z,29.13
2018-12-17T14:12:47.700Z,27.30
2018-12-17T14:15:13.892Z,27.53
2018-12-17T14:17:42.134Z,30.40
2018-12-17T14:20:14.401Z,30.97
2018-12-17T14:22:40.386Z,29.60
2018-12-17T14:25:07.105Z,28.40
2018-12-17T14:27:33.032Z,26.83
2018-12-17T14:29:59.718Z,27.67
2018-12-17T14:32:25.729Z,28.40
2018-12-17T14:34:51.642Z,26.70
2018-12-17T14:37:17.505Z,29.37
2018-12-17T14:39:43.383Z,26.73
2018-12-17T14:42:09.279Z,31.37
2018-12-17T14:44:35.265Z,28.47
2018-12-17T14:47:01.342Z,28.70
2018-12-17T14:49:27.237Z,30.70
2018-12-17T14:51:53.343Z,29.17
2018-12-17T14:54:19.195Z,29.20
2018-12-17T14:56:45.242Z,26.53
2018-12-17T14:59:11.088Z,28.17
2018-12-17T15:01:36.929Z,27.90
2018-12-17T15:04:02.891Z,27.10
2018-12-17T15:06:28.855Z,26.47
2018-12-17T15:08:54.714Z,24.47
2018-12-17T15:11:20.666Z,26.07
2018-12-17T15:13:46.504Z,25.70
2018-12-17T15:16:12.396Z,27.50
2018-12-17T15:18:38.247Z,29.13
2018-12-17T15:21:04.079Z,28.00
2018-12-17T15:23:30.003Z,27.60
2018-12-17T15:25:55.905Z,27.10
2018-12-17T15:28:21.757Z,26.03
2018-12-17T15:30:47.587Z,23.73
2018-12-17T15:33:13.525Z,28.73
2018-12-17T15:35:39.400Z,27.17
2018-12-17T15:38:05.259Z,34.47
2018-12-17T15:40:31.097Z,35.87
2018-12-17T15:42:56.942Z,42.00
2018-12-17T15:45:22.948Z,37.43
2018-12-17T15:47:48.834Z,68.53
2018-12-17T15:50:14.740Z,39.50
2018-12-17T15:52:40.634Z,35.80
2018-12-17T15:55:13.644Z,33.87
2018-12-17T15:57:39.527Z,38.50
2018-12-17T16:00:07.780Z,35.93
2018-12-17T16:02:33.642Z,37.37
2018-12-17T16:04:59.657Z,33.70
2018-12-17T16:07:25.506Z,33.03
2018-12-17T16:09:53.658Z,32.87
2018-12-17T16:12:19.512Z,33.43
2018-12-17T16:14:45.462Z,28.47
2018-12-17T16:17:11.369Z,27.90
2018-12-17T16:19:37.248Z,29.43
2018-12-17T16:22:03.239Z,25.63
2018-12-17T16:24:29.114Z,24.60
2018-12-17T16:26:55.021Z,25.20
2018-12-17T16:29:20.893Z,22.23
2018-12-17T16:31:46.761Z,26.47
2018-12-17T16:34:12.608Z,22.80
2018-12-17T16:36:38.780Z,25.80
2018-12-17T16:39:05.174Z,22.50
2018-12-17T16:41:31.356Z,22.60
2018-12-17T16:43:57.226Z,23.43
2018-12-17T16:46:23.122Z,23.00
2018-12-17T16:48:48.966Z,24.77
2018-12-17T16:51:14.934Z,23.10
2018-12-17T16:53:40.862Z,23.57
2018-12-17T16:56:06.970Z,21.60
2018-12-17T16:58:32.867Z,23.33
2018-12-17T17:00:58.852Z,18.60
2018-12-17T17:03:24.985Z,21.33
2018-12-17T17:05:50.898Z,23.20
2018-12-17T17:08:16.742Z,21.73
2018-12-17T17:10:42.599Z,23.57
2018-12-17T17:13:08.439Z,23.13
2018-12-17T17:15:34.327Z,20.77
2018-12-17T17:18:00.254Z,22.63
2018-12-17T17:20:26.114Z,20.90
2018-12-17T17:22:51.967Z,23.50
2018-12-17T17:25:17.890Z,24.80
2018-12-17T17:27:43.750Z,25.27
2018-12-17T17:30:09.864Z,21.87
2018-12-17T17:32:35.822Z,22.30
2018-12-17T17:35:01.662Z,22.10
2018-12-17T17:37:35.186Z,20.17
2018-12-17T17:40:01.547Z,21.93
2018-12-17T17:42:27.546Z,21.30
2018-12-17T17:44:53.429Z,19.60
2018-12-17T17:47:19.307Z,22.80
2018-12-17T17:49:45.272Z,21.70
2018-12-17T17:52:11.166Z,22.50
2018-12-17T17:54:37.008Z,22.43
2018-12-17T17:57:02.914Z,20.93
2018-12-17T17:59:28.813Z,19.87
2018-12-17T18:01:54.836Z,21.80
2018-12-17T18:04:20.890Z,23.10
2018-12-17T18:06:46.855Z,23.63
2018-12-17T18:09:12.796Z,23.63
2018-12-17T18:11:38.796Z,24.30
2018-12-17T18:14:04.914Z,22.97
2018-12-17T18:16:30.796Z,23.37
2018-12-17T18:18:56.710Z,24.93
2018-12-17T18:21:22.557Z,25.07
2018-12-17T18:23:48.529Z,26.13
2018-12-17T18:26:14.421Z,27.17
2018-12-17T18:28:40.301Z,28.07
2018-12-17T18:31:06.195Z,20.73
2018-12-17T18:33:32.050Z,24.57
2018-12-17T18:35:58.036Z,24.87
2018-12-17T18:38:23.900Z,24.80
2018-12-17T18:40:49.772Z,23.80
2018-12-17T18:43:15.716Z,28.83
2018-12-17T18:45:42.339Z,26.27
2018-12-17T18:48:08.391Z,27.77
2018-12-17T18:50:34.296Z,24.47
2018-12-17T18:53:00.225Z,23.10
2018-12-17T18:55:26.106Z,25.40
2018-12-17T18:57:52.010Z,21.50
2018-12-17T19:00:18.040Z,24.07
2018-12-17T19:02:43.950Z,21.60
2018-12-17T19:05:09.802Z,23.37
2018-12-17T19:07:35.688Z,24.63
2018-12-17T19:10:02.870Z,26.13
2018-12-17T19:12:29.695Z,22.07
2018-12-17T19:14:55.573Z,23.77
2018-12-17T19:17:21.549Z,19.40
2018-12-17T19:19:47.477Z,20.60
2018-12-17T19:22:13.846Z,22.27
2018-12-17T19:24:39.735Z,20.57
2018-12-17T19:27:07.028Z,20.23
2018-12-17T19:29:32.952Z,18.00
2018-12-17T19:31:58.866Z,19.37
2018-12-17T19:34:25.836Z,16.40
2018-12-17T19:36:51.874Z,18.40
2018-12-17T19:39:17.737Z,17.57
2018-12-17T19:41:43.656Z,16.27
2018-12-17T19:44:09.575Z,19.13
2018-12-17T19:46:35.751Z,18.03
2018-12-17T19:49:01.711Z,19.87
2018-12-17T19:51:34.580Z,21.93
2018-12-17T19:54:00.471Z,24.07
2018-12-17T19:56:26.395Z,21.60
2018-12-17T19:58:52.287Z,23.07
2018-12-17T20:01:18.182Z,22.70
2018-12-17T20:03:44.159Z,21.87
2018-12-17T20:06:10.134Z,22.10
2018-12-17T20:08:36.075Z,21.57
2018-12-17T20:11:02.011Z,22.80
2018-12-17T20:13:27.907Z,23.03
2018-12-17T20:15:53.770Z,20.53
2018-12-17T20:18:19.642Z,24.60
2018-12-17T20:20:45.572Z,23.27
2018-12-17T20:23:11.444Z,23.33
2018-12-17T20:25:37.312Z,23.03
2018-12-17T20:28:03.168Z,25.20
2018-12-17T20:30:29.118Z,22.90
2018-12-17T20:32:55.009Z,19.00
2018-12-17T20:35:20.912Z,20.43
2018-12-17T20:37:46.872Z,19.90
2018-12-17T20:40:12.743Z,20.83
2018-12-17T20:42:38.650Z,23.77
2018-12-17T20:45:05.758Z,26.97
2018-12-17T20:47:31.587Z,23.67
2018-12-17T20:49:57.554Z,24.47
2018-12-17T20:52:23.415Z,20.10
2018-12-17T20:54:49.291Z,21.17
2018-12-17T20:57:15.137Z,17.90
2018-12-17T20:59:41.012Z,16.97
2018-12-17T21:02:06.895Z,17.63
2018-12-17T21:04:32.917Z,16.50
2018-12-17T21:06:58.814Z,17.80
2018-12-17T21:09:24.818Z,17.83
2018-12-17T21:11:50.695Z,20.07
2018-12-17T21:14:23.432Z,20.30
2018-12-17T21:16:45.274Z,20.40
2018-12-17T21:22:08.411Z,20.60
2018-12-17T21:24:34.932Z,20.90
2018-12-17T21:27:00.789Z,19.80
2018-12-17T21:29:26.648Z,20.87
2018-12-17T21:31:52.551Z,21.27
2018-12-17T21:34:18.402Z,18.73
2018-12-17T21:36:44.315Z,18.50
2018-12-17T21:39:10.203Z,17.97
2018-12-17T21:41:36.092Z,17.20
2018-12-17T21:44:02.201Z,17.03
2018-12-17T21:46:28.111Z,17.23
2018-12-17T21:48:54.136Z,20.17
2018-12-17T21:51:19.975Z,20.30
2018-12-17T21:53:45.838Z,18.43
2018-12-17T21:56:11.883Z,20.07
2018-12-17T21:58:38.089Z,19.50
2018-12-17T22:01:03.942Z,15.67
2018-12-17T22:03:29.905Z,21.57
2018-12-17T22:05:55.800Z,19.33
2018-12-17T22:08:21.669Z,18.43
2018-12-17T22:10:47.512Z,19.50
2018-12-17T22:13:13.366Z,19.77
2018-12-17T22:15:39.234Z,19.03
2018-12-17T22:18:05.106Z,20.20
2018-12-17T22:20:31.050Z,17.20
2018-12-17T22:22:56.922Z,19.87
2018-12-17T22:25:22.817Z,20.83
2018-12-17T22:27:48.702Z,19.53
2018-12-17T22:30:21.670Z,19.20
2018-12-17T22:32:47.553Z,20.13
2018-12-17T22:35:13.570Z,18.90
2018-12-17T22:37:39.517Z,18.70
2018-12-17T22:40:05.644Z,20.00
2018-12-17T22:42:31.513Z,20.90
2018-12-17T22:44:57.353Z,20.03
2018-12-17T22:47:23.297Z,20.50
2018-12-17T22:49:49.165Z,21.10
2018-12-17T22:52:15.055Z,18.00
2018-12-17T22:54:40.902Z,18.73
2018-12-17T22:57:06.758Z,18.43
2018-12-17T22:59:32.593Z,17.50
2018-12-17T23:01:58.570Z,19.47
2018-12-17T23:04:24.446Z,17.40
2018-12-17T23:06:50.288Z,19.93
2018-12-17T23:09:16.072Z,17.57
2018-12-17T23:12:00.658Z,18.03
2018-12-17T23:14:38.717Z,17.13
2018-12-17T23:17:16.837Z,17.77
2018-12-17T23:19:43.441Z,15.43
2018-12-17T23:22:09.848Z,17.30
2018-12-17T23:24:36.258Z,18.50
2018-12-17T23:27:02.141Z,19.43
2018-12-17T23:29:28.003Z,16.60
2018-12-17T23:31:53.870Z,17.57
2018-12-17T23:34:19.743Z,14.63
2018-12-17T23:36:45.683Z,14.17
2018-12-17T23:39:11.546Z,18.70
2018-12-17T23:41:37.400Z,17.67
2018-12-17T23:44:03.316Z,15.40
2018-12-17T23:46:29.785Z,18.63
2018-12-17T23:48:55.713Z,16.10
2018-12-17T23:51:21.705Z,17.63
2018-12-17T23:53:47.584Z,19.40
2018-12-17T23:56:13.427Z,24.57
2018-12-17T23:58:39.429Z,23.87
